sensor_id;sensor_type;location;lat;lon;timestamp;temperature;humidity
23149;DHT22;11743;51.228;22.498;2023-04-03T00:07:36;1.10;99.90
23149;DHT22;11743;51.228;22.498;2023-04-03T00:07:57;1.20;99.90
23149;DHT22;11743;51.228;22.498;2023-04-03T00:10:32;1.20;99.90
23149;DHT22;11743;51.228;22.498;2023-04-03T00:15:00;1.00;99.90
23149;DHT22;11743;51.228;22.498;2023-04-03T00:21:41;1.00;99.90
23149;DHT22;11743;51.228;22.498;2023-04-03T00:22:25;1.10;99.90
23149;DHT22;11743;51.228;22.498;2023-04-03T00:24:41;1.10;99.90
23149;DHT22;11743;51.228;22.498;2023-04-03T00:25:03;1.10;99.90
23149;DHT22;11743;51.228;22.498;2023-04-03T00:29:32;0.90;99.90
23149;DHT22;11743;51.228;22.498;2023-04-03T00:30:19;0.80;99.90
23149;DHT22;11743;51.228;22.498;2023-04-03T00:42:28;0.70;99.90
23149;DHT22;11743;51.228;22.498;2023-04-03T00:43:17;0.60;99.90
23149;DHT22;11743;51.228;22.498;2023-04-03T00:52:21;0.80;99.90
23149;DHT22;11743;51.228;22.498;2023-04-03T00:53:39;0.80;99.90
23149;DHT22;11743;51.228;22.498;2023-04-03T00:54:05;0.90;99.90
23149;DHT22;11743;51.228;22.498;2023-04-03T01:00:40;0.80;99.90
23149;DHT22;11743;51.228;22.498;2023-04-03T01:02:13;0.80;99.90
23149;DHT22;11743;51.228;22.498;2023-04-03T01:02:57;0.90;99.90
23149;DHT22;11743;51.228;22.498;2023-04-03T01:03:19;0.80;99.90
23149;DHT22;11743;51.228;22.498;2023-04-03T01:03:41;0.80;99.90
23149;DHT22;11743;51.228;22.498;2023-04-03T01:04:28;0.80;99.90
23149;DHT22;11743;51.228;22.498;2023-04-03T01:06:02;0.80;99.90
23149;DHT22;11743;51.228;22.498;2023-04-03T01:07:59;0.80;99.90
23149;DHT22;11743;51.228;22.498;2023-04-03T01:17:58;0.70;99.90
23149;DHT22;11743;51.228;22.498;2023-04-03T01:25:27;0.70;99.90
23149;DHT22;11743;51.228;22.498;2023-04-03T01:26:57;0.90;99.90
23149;DHT22;11743;51.228;22.498;2023-04-03T01:27:42;0.80;99.90
23149;DHT22;11743;51.228;22.498;2023-04-03T01:30:31;0.80;99.90
23149;DHT22;11743;51.228;22.498;2023-04-03T01:35:34;0.80;99.90
23149;DHT22;11743;51.228;22.498;2023-04-03T01:37:05;0.80;99.90
23149;DHT22;11743;51.228;22.498;2023-04-03T01:42:40;0.70;99.90
23149;DHT22;11743;51.228;22.498;2023-04-03T01:47:07;0.80;99.90
23149;DHT22;11743;51.228;22.498;2023-04-03T01:49:42;0.80;99.90
23149;DHT22;11743;51.228;22.498;2023-04-03T01:51:55;0.80;99.90
23149;DHT22;11743;51.228;22.498;2023-04-03T01:57:27;0.70;99.90
23149;DHT22;11743;51.228;22.498;2023-04-03T01:58:11;0.70;99.90
23149;DHT22;11743;51.228;22.498;2023-04-03T02:00:03;0.70;99.90
23149;DHT22;11743;51.228;22.498;2023-04-03T02:04:32;0.60;99.90
23149;DHT22;11743;51.228;22.498;2023-04-03T02:10:27;0.60;99.90
23149;DHT22;11743;51.228;22.498;2023-04-03T02:11:11;0.60;99.90
23149;DHT22;11743;51.228;22.498;2023-04-03T02:15:15;0.50;99.90
23149;DHT22;11743;51.228;22.498;2023-04-03T02:18:50;0.40;99.90
23149;DHT22;11743;51.228;22.498;2023-04-03T02:19:12;0.40;99.90
23149;DHT22;11743;51.228;22.498;2023-04-03T02:19:59;0.40;99.90
23149;DHT22;11743;51.228;22.498;2023-04-03T02:25:32;0.30;99.90
23149;DHT22;11743;51.228;22.498;2023-04-03T02:26:24;0.30;99.90
23149;DHT22;11743;51.228;22.498;2023-04-03T02:28:38;0.30;99.90
23149;DHT22;11743;51.228;22.498;2023-04-03T02:29:44;0.30;99.90
23149;DHT22;11743;51.228;22.498;2023-04-03T02:30:06;0.30;99.90
23149;DHT22;11743;51.228;22.498;2023-04-03T02:31:37;0.40;99.90
23149;DHT22;11743;51.228;22.498;2023-04-03T02:33:29;0.40;99.90
23149;DHT22;11743;51.228;22.498;2023-04-03T02:33:50;0.30;99.90
23149;DHT22;11743;51.228;22.498;2023-04-03T02:39:27;0.40;99.90
23149;DHT22;11743;51.228;22.498;2023-04-03T02:41:07;0.30;99.90
23149;DHT22;11743;51.228;22.498;2023-04-03T02:41:56;0.30;99.90
23149;DHT22;11743;51.228;22.498;2023-04-03T02:46:25;0.30;99.90
23149;DHT22;11743;51.228;22.498;2023-04-03T02:49:00;0.30;99.90
23149;DHT22;11743;51.228;22.498;2023-04-03T02:50:29;0.40;99.90
23149;DHT22;11743;51.228;22.498;2023-04-03T03:00:54;0.40;99.90
23149;DHT22;11743;51.228;22.498;2023-04-03T03:03:07;0.30;99.90
23149;DHT22;11743;51.228;22.498;2023-04-03T03:04:36;0.40;99.90
23149;DHT22;11743;51.228;22.498;2023-04-03T03:06:08;0.30;99.90
23149;DHT22;11743;51.228;22.498;2023-04-03T03:08:20;0.30;99.90
23149;DHT22;11743;51.228;22.498;2023-04-03T03:08:42;0.40;99.90
23149;DHT22;11743;51.228;22.498;2023-04-03T03:09:27;0.40;99.90
23149;DHT22;11743;51.228;22.498;2023-04-03T03:10:55;0.40;99.90
23149;DHT22;11743;51.228;22.498;2023-04-03T03:12:01;0.40;99.90
23149;DHT22;11743;51.228;22.498;2023-04-03T03:13:52;0.40;99.90
23149;DHT22;11743;51.228;22.498;2023-04-03T03:21:00;0.20;99.90
23149;DHT22;11743;51.228;22.498;2023-04-03T03:40:48;0.00;99.90
23149;DHT22;11743;51.228;22.498;2023-04-03T03:42:17;-0.10;99.90
23149;DHT22;11743;51.228;22.498;2023-04-03T03:43:23;-0.10;99.90
23149;DHT22;11743;51.228;22.498;2023-04-03T03:50:49;-0.10;99.90
23149;DHT22;11743;51.228;22.498;2023-04-03T04:10:08;-0.40;99.90
23149;DHT22;11743;51.228;22.498;2023-04-03T04:10:30;-0.40;99.90
23149;DHT22;11743;51.228;22.498;2023-04-03T04:10:51;-0.40;99.90
23149;DHT22;11743;51.228;22.498;2023-04-03T04:11:13;-0.40;99.90
23149;DHT22;11743;51.228;22.498;2023-04-03T04:11:35;-0.50;99.90
23149;DHT22;11743;51.228;22.498;2023-04-03T04:11:57;-0.40;99.90
23149;DHT22;11743;51.228;22.498;2023-04-03T04:12:19;-0.50;99.90
23149;DHT22;11743;51.228;22.498;2023-04-03T04:13:04;-0.50;99.90
23149;DHT22;11743;51.228;22.498;2023-04-03T04:13:26;-0.50;99.90
23149;DHT22;11743;51.228;22.498;2023-04-03T04:13:47;-0.50;99.90
23149;DHT22;11743;51.228;22.498;2023-04-03T04:14:09;-0.50;99.90
23149;DHT22;11743;51.228;22.498;2023-04-03T04:14:33;-0.50;99.90
23149;DHT22;11743;51.228;22.498;2023-04-03T04:14:58;-0.50;99.90
23149;DHT22;11743;51.228;22.498;2023-04-03T04:15:20;-0.50;99.90
23149;DHT22;11743;51.228;22.498;2023-04-03T04:15:43;-0.50;99.90
23149;DHT22;11743;51.228;22.498;2023-04-03T04:16:06;-0.60;99.90
23149;DHT22;11743;51.228;22.498;2023-04-03T04:16:28;-0.50;99.90
23149;DHT22;11743;51.228;22.498;2023-04-03T04:16:50;-0.50;99.90
23149;DHT22;11743;51.228;22.498;2023-04-03T04:17:13;-0.50;99.90
23149;DHT22;11743;51.228;22.498;2023-04-03T04:17:35;-0.50;99.90
23149;DHT22;11743;51.228;22.498;2023-04-03T04:17:57;-0.60;99.90
23149;DHT22;11743;51.228;22.498;2023-04-03T04:18:19;-0.60;99.90
23149;DHT22;11743;51.228;22.498;2023-04-03T04:18:42;-0.50;99.90
23149;DHT22;11743;51.228;22.498;2023-04-03T04:19:04;-0.60;99.90
23149;DHT22;11743;51.228;22.498;2023-04-03T04:19:29;0.00;99.90
23149;DHT22;11743;51.228;22.498;2023-04-03T04:20:13;-0.60;99.90
23149;DHT22;11743;51.228;22.498;2023-04-03T04:20:35;-0.60;99.90
23149;DHT22;11743;51.228;22.498;2023-04-03T04:20:57;-0.50;99.90
23149;DHT22;11743;51.228;22.498;2023-04-03T04:21:19;-0.60;99.90
23149;DHT22;11743;51.228;22.498;2023-04-03T04:21:40;-0.50;99.90
23149;DHT22;11743;51.228;22.498;2023-04-03T04:22:02;-0.60;99.90
23149;DHT22;11743;51.228;22.498;2023-04-03T04:22:24;-0.60;99.90
23149;DHT22;11743;51.228;22.498;2023-04-03T04:22:46;-0.60;99.90
23149;DHT22;11743;51.228;22.498;2023-04-03T04:23:08;-0.60;99.90
23149;DHT22;11743;51.228;22.498;2023-04-03T04:23:30;-0.60;99.90
23149;DHT22;11743;51.228;22.498;2023-04-03T04:23:51;-0.60;99.90
23149;DHT22;11743;51.228;22.498;2023-04-03T04:24:13;-0.60;99.90
23149;DHT22;11743;51.228;22.498;2023-04-03T04:24:35;-0.60;99.90
23149;DHT22;11743;51.228;22.498;2023-04-03T04:24:59;-0.60;99.90
23149;DHT22;11743;51.228;22.498;2023-04-03T04:25:21;-0.60;99.90
23149;DHT22;11743;51.228;22.498;2023-04-03T04:25:47;-0.60;99.90
23149;DHT22;11743;51.228;22.498;2023-04-03T04:26:09;-0.60;99.90
23149;DHT22;11743;51.228;22.498;2023-04-03T04:26:31;-0.60;99.90
23149;DHT22;11743;51.228;22.498;2023-04-03T04:26:53;-0.60;99.90
23149;DHT22;11743;51.228;22.498;2023-04-03T04:27:37;-0.60;99.90
23149;DHT22;11743;51.228;22.498;2023-04-03T04:27:59;-0.60;99.90
23149;DHT22;11743;51.228;22.498;2023-04-03T04:28:21;-0.60;99.90
23149;DHT22;11743;51.228;22.498;2023-04-03T04:28:43;-0.60;99.90
23149;DHT22;11743;51.228;22.498;2023-04-03T04:29:05;-0.60;99.90
23149;DHT22;11743;51.228;22.498;2023-04-03T04:29:49;-0.70;99.90
23149;DHT22;11743;51.228;22.498;2023-04-03T04:30:11;-0.60;99.90
23149;DHT22;11743;51.228;22.498;2023-04-03T04:30:33;-0.60;99.90
23149;DHT22;11743;51.228;22.498;2023-04-03T04:30:55;-0.60;99.90
23149;DHT22;11743;51.228;22.498;2023-04-03T04:31:17;-0.60;99.90
23149;DHT22;11743;51.228;22.498;2023-04-03T04:31:39;-0.60;99.90
23149;DHT22;11743;51.228;22.498;2023-04-03T04:32:04;-0.60;99.90
23149;DHT22;11743;51.228;22.498;2023-04-03T04:32:26;-0.60;99.90
23149;DHT22;11743;51.228;22.498;2023-04-03T04:32:48;-0.60;99.90
23149;DHT22;11743;51.228;22.498;2023-04-03T04:33:10;-0.70;99.90
23149;DHT22;11743;51.228;22.498;2023-04-03T04:33:32;-0.60;99.90
23149;DHT22;11743;51.228;22.498;2023-04-03T04:33:54;-0.60;99.90
23149;DHT22;11743;51.228;22.498;2023-04-03T04:34:15;-0.60;99.90
23149;DHT22;11743;51.228;22.498;2023-04-03T04:34:37;-0.60;99.90
23149;DHT22;11743;51.228;22.498;2023-04-03T04:34:59;-0.60;99.90
23149;DHT22;11743;51.228;22.498;2023-04-03T04:35:21;-0.70;99.90
23149;DHT22;11743;51.228;22.498;2023-04-03T04:35:43;-0.70;99.90
23149;DHT22;11743;51.228;22.498;2023-04-03T04:36:06;-0.70;99.90
23149;DHT22;11743;51.228;22.498;2023-04-03T04:36:28;-0.70;99.90
23149;DHT22;11743;51.228;22.498;2023-04-03T04:36:49;-0.70;99.90
23149;DHT22;11743;51.228;22.498;2023-04-03T04:37:12;-0.70;99.90
23149;DHT22;11743;51.228;22.498;2023-04-03T04:37:34;-0.70;99.90
23149;DHT22;11743;51.228;22.498;2023-04-03T04:37:56;-0.60;99.90
23149;DHT22;11743;51.228;22.498;2023-04-03T04:38:18;-0.60;99.90
23149;DHT22;11743;51.228;22.498;2023-04-03T04:38:40;-0.60;99.90
23149;DHT22;11743;51.228;22.498;2023-04-03T04:39:02;-0.30;99.90
23149;DHT22;11743;51.228;22.498;2023-04-03T04:39:24;-0.70;99.90
23149;DHT22;11743;51.228;22.498;2023-04-03T04:39:46;-0.60;99.90
23149;DHT22;11743;51.228;22.498;2023-04-03T04:40:08;-0.70;99.90
23149;DHT22;11743;51.228;22.498;2023-04-03T04:40:30;-0.70;99.90
23149;DHT22;11743;51.228;22.498;2023-04-03T04:40:52;-0.70;99.90
23149;DHT22;11743;51.228;22.498;2023-04-03T04:41:14;-0.60;99.90
23149;DHT22;11743;51.228;22.498;2023-04-03T04:41:36;-0.60;99.90
23149;DHT22;11743;51.228;22.498;2023-04-03T04:41:58;-0.70;99.90
23149;DHT22;11743;51.228;22.498;2023-04-03T04:42:20;-0.60;99.90
23149;DHT22;11743;51.228;22.498;2023-04-03T04:42:41;-0.60;99.90
23149;DHT22;11743;51.228;22.498;2023-04-03T04:43:03;-0.60;99.90
23149;DHT22;11743;51.228;22.498;2023-04-03T04:43:25;-0.60;99.90
23149;DHT22;11743;51.228;22.498;2023-04-03T04:43:48;-0.60;99.90
23149;DHT22;11743;51.228;22.498;2023-04-03T04:44:10;-0.60;99.90
23149;DHT22;11743;51.228;22.498;2023-04-03T04:44:54;-0.60;99.90
23149;DHT22;11743;51.228;22.498;2023-04-03T04:45:16;-0.60;99.90
23149;DHT22;11743;51.228;22.498;2023-04-03T04:45:38;-0.60;99.90
23149;DHT22;11743;51.228;22.498;2023-04-03T04:46:04;-0.60;99.90
23149;DHT22;11743;51.228;22.498;2023-04-03T04:46:49;-0.60;99.90
23149;DHT22;11743;51.228;22.498;2023-04-03T04:47:10;-0.60;99.90
23149;DHT22;11743;51.228;22.498;2023-04-03T04:47:32;-0.60;99.90
23149;DHT22;11743;51.228;22.498;2023-04-03T04:47:57;-0.60;99.90
23149;DHT22;11743;51.228;22.498;2023-04-03T04:48:19;-0.60;99.90
23149;DHT22;11743;51.228;22.498;2023-04-03T04:48:41;-0.60;99.90
23149;DHT22;11743;51.228;22.498;2023-04-03T04:49:02;-0.60;99.90
23149;DHT22;11743;51.228;22.498;2023-04-03T04:49:24;-0.70;99.90
23149;DHT22;11743;51.228;22.498;2023-04-03T04:49:46;-0.70;99.90
23149;DHT22;11743;51.228;22.498;2023-04-03T04:50:09;-0.70;99.90
23149;DHT22;11743;51.228;22.498;2023-04-03T04:50:31;-0.60;99.90
23149;DHT22;11743;51.228;22.498;2023-04-03T04:50:53;-0.60;99.90
23149;DHT22;11743;51.228;22.498;2023-04-03T04:51:15;-0.60;99.90
23149;DHT22;11743;51.228;22.498;2023-04-03T04:51:37;-0.60;99.90
23149;DHT22;11743;51.228;22.498;2023-04-03T04:52:12;-0.70;99.90
23149;DHT22;11743;51.228;22.498;2023-04-03T04:52:34;-0.70;99.90
23149;DHT22;11743;51.228;22.498;2023-04-03T04:52:56;-0.70;99.90
23149;DHT22;11743;51.228;22.498;2023-04-03T04:53:18;-0.70;99.90
23149;DHT22;11743;51.228;22.498;2023-04-03T04:53:40;-0.70;99.90
23149;DHT22;11743;51.228;22.498;2023-04-03T04:54:03;-0.70;99.90
23149;DHT22;11743;51.228;22.498;2023-04-03T04:54:25;-0.70;99.90
23149;DHT22;11743;51.228;22.498;2023-04-03T04:54:47;-0.70;99.90
23149;DHT22;11743;51.228;22.498;2023-04-03T04:55:09;-0.70;99.90
23149;DHT22;11743;51.228;22.498;2023-04-03T04:55:31;-0.60;99.90
23149;DHT22;11743;51.228;22.498;2023-04-03T04:55:54;-0.70;99.90
23149;DHT22;11743;51.228;22.498;2023-04-03T04:56:16;-0.70;99.90
23149;DHT22;11743;51.228;22.498;2023-04-03T04:56:38;-0.60;99.90
23149;DHT22;11743;51.228;22.498;2023-04-03T04:57:00;-0.60;99.90
23149;DHT22;11743;51.228;22.498;2023-04-03T04:57:23;-0.60;99.90
23149;DHT22;11743;51.228;22.498;2023-04-03T04:57:44;-0.60;99.90
23149;DHT22;11743;51.228;22.498;2023-04-03T04:58:06;-0.60;99.90
23149;DHT22;11743;51.228;22.498;2023-04-03T04:58:28;-0.60;99.90
23149;DHT22;11743;51.228;22.498;2023-04-03T04:58:50;-0.60;99.90
23149;DHT22;11743;51.228;22.498;2023-04-03T04:59:12;-0.50;99.90
23149;DHT22;11743;51.228;22.498;2023-04-03T04:59:34;-0.60;99.90
23149;DHT22;11743;51.228;22.498;2023-04-03T04:59:56;-0.50;99.90
23149;DHT22;11743;51.228;22.498;2023-04-03T05:00:18;-0.50;99.90
23149;DHT22;11743;51.228;22.498;2023-04-03T05:00:41;-0.50;99.90
23149;DHT22;11743;51.228;22.498;2023-04-03T05:01:04;-0.50;99.90
23149;DHT22;11743;51.228;22.498;2023-04-03T05:01:27;-0.40;99.90
23149;DHT22;11743;51.228;22.498;2023-04-03T05:01:49;-0.40;99.90
23149;DHT22;11743;51.228;22.498;2023-04-03T05:02:11;-0.40;99.90
23149;DHT22;11743;51.228;22.498;2023-04-03T05:02:33;-0.40;99.90
23149;DHT22;11743;51.228;22.498;2023-04-03T05:02:55;-0.40;99.90
23149;DHT22;11743;51.228;22.498;2023-04-03T05:03:17;-0.50;99.90
23149;DHT22;11743;51.228;22.498;2023-04-03T05:03:38;-0.40;99.90
23149;DHT22;11743;51.228;22.498;2023-04-03T05:04:01;-0.40;99.90
23149;DHT22;11743;51.228;22.498;2023-04-03T05:04:22;-0.30;99.90
23149;DHT22;11743;51.228;22.498;2023-04-03T05:05:07;-0.40;99.90
23149;DHT22;11743;51.228;22.498;2023-04-03T05:05:29;-0.30;99.90
23149;DHT22;11743;51.228;22.498;2023-04-03T05:05:51;-0.40;99.90
23149;DHT22;11743;51.228;22.498;2023-04-03T05:06:13;-0.40;99.90
23149;DHT22;11743;51.228;22.498;2023-04-03T05:06:35;-0.40;99.90
23149;DHT22;11743;51.228;22.498;2023-04-03T05:06:57;-0.30;99.90
23149;DHT22;11743;51.228;22.498;2023-04-03T05:07:19;-0.30;99.90
23149;DHT22;11743;51.228;22.498;2023-04-03T05:07:41;-0.40;99.90
23149;DHT22;11743;51.228;22.498;2023-04-03T05:08:03;-0.40;99.90
23149;DHT22;11743;51.228;22.498;2023-04-03T05:08:26;-0.40;99.90
23149;DHT22;11743;51.228;22.498;2023-04-03T05:08:48;-0.40;99.90
23149;DHT22;11743;51.228;22.498;2023-04-03T05:09:10;-0.40;99.90
23149;DHT22;11743;51.228;22.498;2023-04-03T05:09:31;-0.40;99.90
23149;DHT22;11743;51.228;22.498;2023-04-03T05:09:53;-0.40;99.90
23149;DHT22;11743;51.228;22.498;2023-04-03T05:10:15;-0.40;99.90
23149;DHT22;11743;51.228;22.498;2023-04-03T05:10:37;-0.40;99.90
23149;DHT22;11743;51.228;22.498;2023-04-03T05:10:59;-0.30;99.90
23149;DHT22;11743;51.228;22.498;2023-04-03T05:11:21;-0.40;99.90
23149;DHT22;11743;51.228;22.498;2023-04-03T05:11:46;-0.40;99.90
23149;DHT22;11743;51.228;22.498;2023-04-03T05:12:30;-0.30;99.90
23149;DHT22;11743;51.228;22.498;2023-04-03T05:12:51;-0.30;99.90
23149;DHT22;11743;51.228;22.498;2023-04-03T05:13:13;-0.40;99.90
23149;DHT22;11743;51.228;22.498;2023-04-03T05:13:35;-0.40;99.90
23149;DHT22;11743;51.228;22.498;2023-04-03T05:14:20;-0.40;99.90
23149;DHT22;11743;51.228;22.498;2023-04-03T05:14:42;-0.40;99.90
23149;DHT22;11743;51.228;22.498;2023-04-03T05:15:04;-0.40;99.90
23149;DHT22;11743;51.228;22.498;2023-04-03T05:15:26;-0.30;99.90
23149;DHT22;11743;51.228;22.498;2023-04-03T05:15:48;-0.40;99.90
23149;DHT22;11743;51.228;22.498;2023-04-03T05:16:33;-0.40;99.90
23149;DHT22;11743;51.228;22.498;2023-04-03T05:16:55;-0.30;99.90
23149;DHT22;11743;51.228;22.498;2023-04-03T05:17:39;-0.40;99.90
23149;DHT22;11743;51.228;22.498;2023-04-03T05:18:01;-0.50;99.90
23149;DHT22;11743;51.228;22.498;2023-04-03T05:18:23;-0.50;99.90
23149;DHT22;11743;51.228;22.498;2023-04-03T05:18:48;-0.40;99.90
23149;DHT22;11743;51.228;22.498;2023-04-03T05:19:09;-0.50;99.90
23149;DHT22;11743;51.228;22.498;2023-04-03T05:19:31;-0.40;99.90
23149;DHT22;11743;51.228;22.498;2023-04-03T05:19:53;-0.40;99.90
23149;DHT22;11743;51.228;22.498;2023-04-03T05:20:15;-0.40;99.90
23149;DHT22;11743;51.228;22.498;2023-04-03T05:20:37;-0.40;99.90
23149;DHT22;11743;51.228;22.498;2023-04-03T05:20:59;-0.40;99.90
23149;DHT22;11743;51.228;22.498;2023-04-03T05:21:20;-0.40;99.90
23149;DHT22;11743;51.228;22.498;2023-04-03T05:21:44;-0.30;99.90
23149;DHT22;11743;51.228;22.498;2023-04-03T05:22:06;-0.40;99.90
23149;DHT22;11743;51.228;22.498;2023-04-03T05:22:28;-0.30;99.90
23149;DHT22;11743;51.228;22.498;2023-04-03T05:22:50;-0.30;99.90
23149;DHT22;11743;51.228;22.498;2023-04-03T05:23:12;-0.30;99.90
23149;DHT22;11743;51.228;22.498;2023-04-03T05:23:34;-0.30;99.90
23149;DHT22;11743;51.228;22.498;2023-04-03T05:23:55;-0.30;99.90
23149;DHT22;11743;51.228;22.498;2023-04-03T05:24:17;-0.40;99.90
23149;DHT22;11743;51.228;22.498;2023-04-03T05:24:39;-0.30;99.90
23149;DHT22;11743;51.228;22.498;2023-04-03T05:25:01;-1.10;99.90
23149;DHT22;11743;51.228;22.498;2023-04-03T05:25:23;-0.40;99.90
23149;DHT22;11743;51.228;22.498;2023-04-03T05:25:47;-0.40;99.90
23149;DHT22;11743;51.228;22.498;2023-04-03T05:26:10;-0.40;99.90
23149;DHT22;11743;51.228;22.498;2023-04-03T05:26:32;-0.40;99.90
23149;DHT22;11743;51.228;22.498;2023-04-03T05:26:54;-0.40;99.90
23149;DHT22;11743;51.228;22.498;2023-04-03T05:27:15;-0.30;99.90
23149;DHT22;11743;51.228;22.498;2023-04-03T05:27:38;-0.40;99.90
23149;DHT22;11743;51.228;22.498;2023-04-03T05:28:00;-0.30;99.90
23149;DHT22;11743;51.228;22.498;2023-04-03T05:28:22;-0.30;99.90
23149;DHT22;11743;51.228;22.498;2023-04-03T05:28:44;-0.30;99.90
23149;DHT22;11743;51.228;22.498;2023-04-03T05:29:06;-0.20;99.90
23149;DHT22;11743;51.228;22.498;2023-04-03T05:29:28;-0.30;99.90
23149;DHT22;11743;51.228;22.498;2023-04-03T05:29:50;-0.20;99.90
23149;DHT22;11743;51.228;22.498;2023-04-03T05:30:12;-0.30;99.90
23149;DHT22;11743;51.228;22.498;2023-04-03T05:30:34;-0.30;99.90
23149;DHT22;11743;51.228;22.498;2023-04-03T05:30:58;-0.30;99.90
23149;DHT22;11743;51.228;22.498;2023-04-03T05:31:19;-0.20;99.90
23149;DHT22;11743;51.228;22.498;2023-04-03T05:31:41;-0.20;99.90
23149;DHT22;11743;51.228;22.498;2023-04-03T05:32:03;-0.10;99.90
23149;DHT22;11743;51.228;22.498;2023-04-03T05:32:25;-0.20;99.90
23149;DHT22;11743;51.228;22.498;2023-04-03T05:32:49;-0.20;99.90
23149;DHT22;11743;51.228;22.498;2023-04-03T05:33:11;-0.20;99.90
23149;DHT22;11743;51.228;22.498;2023-04-03T05:33:33;-0.20;99.90
23149;DHT22;11743;51.228;22.498;2023-04-03T05:33:55;-0.20;99.90
23149;DHT22;11743;51.228;22.498;2023-04-03T05:34:17;-0.20;99.90
23149;DHT22;11743;51.228;22.498;2023-04-03T05:34:39;-0.20;99.90
23149;DHT22;11743;51.228;22.498;2023-04-03T05:35:00;-0.20;99.90
23149;DHT22;11743;51.228;22.498;2023-04-03T05:35:22;-0.10;99.90
23149;DHT22;11743;51.228;22.498;2023-04-03T05:35:44;-0.10;99.90
23149;DHT22;11743;51.228;22.498;2023-04-03T05:36:06;-0.10;99.90
23149;DHT22;11743;51.228;22.498;2023-04-03T05:36:51;-0.20;99.90
23149;DHT22;11743;51.228;22.498;2023-04-03T05:37:13;-0.20;99.90
23149;DHT22;11743;51.228;22.498;2023-04-03T05:37:36;-0.20;99.90
23149;DHT22;11743;51.228;22.498;2023-04-03T05:37:58;-0.20;99.90
23149;DHT22;11743;51.228;22.498;2023-04-03T05:38:20;-0.10;99.90
23149;DHT22;11743;51.228;22.498;2023-04-03T05:38:42;-0.10;99.90
23149;DHT22;11743;51.228;22.498;2023-04-03T05:39:04;-0.10;99.90
23149;DHT22;11743;51.228;22.498;2023-04-03T05:39:26;-0.10;99.90
23149;DHT22;11743;51.228;22.498;2023-04-03T05:39:47;-0.10;99.90
23149;DHT22;11743;51.228;22.498;2023-04-03T05:40:09;-0.20;99.90
23149;DHT22;11743;51.228;22.498;2023-04-03T05:40:31;-0.20;99.90
23149;DHT22;11743;51.228;22.498;2023-04-03T05:40:53;-0.20;99.90
23149;DHT22;11743;51.228;22.498;2023-04-03T05:41:15;-0.20;99.90
23149;DHT22;11743;51.228;22.498;2023-04-03T05:41:37;-0.20;99.90
23149;DHT22;11743;51.228;22.498;2023-04-03T05:41:59;-0.10;99.90
23149;DHT22;11743;51.228;22.498;2023-04-03T05:42:21;-0.10;99.90
23149;DHT22;11743;51.228;22.498;2023-04-03T05:42:43;-0.10;99.90
23149;DHT22;11743;51.228;22.498;2023-04-03T05:43:05;-0.10;99.90
23149;DHT22;11743;51.228;22.498;2023-04-03T05:43:26;-0.10;99.90
23149;DHT22;11743;51.228;22.498;2023-04-03T05:43:48;0.00;99.90
23149;DHT22;11743;51.228;22.498;2023-04-03T05:44:10;0.00;99.90
23149;DHT22;11743;51.228;22.498;2023-04-03T05:44:32;-0.10;99.90
23149;DHT22;11743;51.228;22.498;2023-04-03T05:44:54;0.00;99.90
23149;DHT22;11743;51.228;22.498;2023-04-03T05:45:16;0.00;99.90
23149;DHT22;11743;51.228;22.498;2023-04-03T05:45:37;0.00;99.90
23149;DHT22;11743;51.228;22.498;2023-04-03T05:45:59;-0.10;99.90
23149;DHT22;11743;51.228;22.498;2023-04-03T05:46:21;-0.20;99.90
23149;DHT22;11743;51.228;22.498;2023-04-03T05:46:43;-0.20;99.90
23149;DHT22;11743;51.228;22.498;2023-04-03T05:47:05;-0.20;99.90
23149;DHT22;11743;51.228;22.498;2023-04-03T05:47:30;-0.20;99.90
23149;DHT22;11743;51.228;22.498;2023-04-03T05:47:52;-0.20;99.90
23149;DHT22;11743;51.228;22.498;2023-04-03T05:48:14;-0.20;99.90
23149;DHT22;11743;51.228;22.498;2023-04-03T05:48:36;-0.10;99.90
23149;DHT22;11743;51.228;22.498;2023-04-03T05:48:58;-0.10;99.90
23149;DHT22;11743;51.228;22.498;2023-04-03T05:49:20;0.00;99.90
23149;DHT22;11743;51.228;22.498;2023-04-03T05:49:42;0.00;99.90
23149;DHT22;11743;51.228;22.498;2023-04-03T05:50:04;0.10;99.90
23149;DHT22;11743;51.228;22.498;2023-04-03T05:50:27;0.10;99.90
23149;DHT22;11743;51.228;22.498;2023-04-03T05:50:48;0.00;99.90
23149;DHT22;11743;51.228;22.498;2023-04-03T05:51:23;0.10;99.90
23149;DHT22;11743;51.228;22.498;2023-04-03T05:51:47;0.10;99.90
23149;DHT22;11743;51.228;22.498;2023-04-03T05:52:35;0.20;99.90
23149;DHT22;11743;51.228;22.498;2023-04-03T05:52:59;0.30;99.90
23149;DHT22;11743;51.228;22.498;2023-04-03T05:53:23;-0.70;99.90
23149;DHT22;11743;51.228;22.498;2023-04-03T05:53:46;0.30;99.90
23149;DHT22;11743;51.228;22.498;2023-04-03T05:54:26;0.20;99.90
23149;DHT22;11743;51.228;22.498;2023-04-03T05:54:49;0.10;99.90
23149;DHT22;11743;51.228;22.498;2023-04-03T05:55:12;0.20;99.90
23149;DHT22;11743;51.228;22.498;2023-04-03T05:55:34;0.20;99.90
23149;DHT22;11743;51.228;22.498;2023-04-03T05:55:56;0.20;99.90
23149;DHT22;11743;51.228;22.498;2023-04-03T05:56:18;0.20;99.90
23149;DHT22;11743;51.228;22.498;2023-04-03T05:56:40;0.30;99.90
23149;DHT22;11743;51.228;22.498;2023-04-03T05:57:02;0.30;99.90
23149;DHT22;11743;51.228;22.498;2023-04-03T05:57:24;0.30;99.90
23149;DHT22;11743;51.228;22.498;2023-04-03T05:57:46;0.30;99.90
23149;DHT22;11743;51.228;22.498;2023-04-03T05:58:08;0.40;99.90
23149;DHT22;11743;51.228;22.498;2023-04-03T05:58:32;0.40;99.90
23149;DHT22;11743;51.228;22.498;2023-04-03T05:58:53;0.40;99.90
23149;DHT22;11743;51.228;22.498;2023-04-03T05:59:17;1.90;99.90
23149;DHT22;11743;51.228;22.498;2023-04-03T05:59:39;0.20;99.90
23149;DHT22;11743;51.228;22.498;2023-04-03T06:00:02;0.20;99.90
23149;DHT22;11743;51.228;22.498;2023-04-03T06:00:25;0.20;99.90
23149;DHT22;11743;51.228;22.498;2023-04-03T06:00:46;0.20;99.90
23149;DHT22;11743;51.228;22.498;2023-04-03T06:01:08;0.20;99.90
23149;DHT22;11743;51.228;22.498;2023-04-03T06:01:30;0.20;99.90
23149;DHT22;11743;51.228;22.498;2023-04-03T06:01:52;0.10;99.90
23149;DHT22;11743;51.228;22.498;2023-04-03T06:02:16;0.20;99.90
23149;DHT22;11743;51.228;22.498;2023-04-03T06:02:38;0.30;99.90
23149;DHT22;11743;51.228;22.498;2023-04-03T06:03:00;0.30;99.90
23149;DHT22;11743;51.228;22.498;2023-04-03T06:03:23;0.40;99.90
23149;DHT22;11743;51.228;22.498;2023-04-03T06:03:45;0.40;99.90
23149;DHT22;11743;51.228;22.498;2023-04-03T06:04:07;0.40;99.90
23149;DHT22;11743;51.228;22.498;2023-04-03T06:04:30;0.40;99.90
23149;DHT22;11743;51.228;22.498;2023-04-03T06:04:52;0.40;99.90
23149;DHT22;11743;51.228;22.498;2023-04-03T06:05:14;0.40;99.90
23149;DHT22;11743;51.228;22.498;2023-04-03T06:05:36;0.40;99.90
23149;DHT22;11743;51.228;22.498;2023-04-03T06:05:58;0.50;99.90
23149;DHT22;11743;51.228;22.498;2023-04-03T06:06:21;0.50;99.90
23149;DHT22;11743;51.228;22.498;2023-04-03T06:06:49;0.50;99.90
23149;DHT22;11743;51.228;22.498;2023-04-03T06:07:17;0.60;99.90